• Join FlightAware (Why Join?)
  • Login
  • US Flag 
04:07AM EDT


 

Airport Tracker/Info


-or-


 

Live Flight TrackerFlight Track Log ✈ SWA525 ✈ 30-Apr-2013 ✈ KMCO - KSTL

Flight Track Log - Related Links

Times and Time Zones

All times are in EDT time to prevent confusion due to time zone crossing. See the SWA525 flight status page for this flight to view local times or setup timezone preferences in your user account.

Time Position Orientation Groundspeed Altitude Reporting Facility
EDT Latitude Longitude Course Direction KTS MPH feet Rate Location/Type
09:18PM 28.4333 -81.3000 360° North 163 188 600  Level Orlando TRACON
09:19PM 28.4500 -81.3000 360° North 187 215 1,600 2,340 Climbing Orlando TRACON
09:20PM 28.5167 -81.3167 348° North 248 285 3,900 2,640 Climbing Orlando TRACON
09:21PM 28.5833 -81.3500 336° Northwest 276 318 6,900 3,000 Climbing Orlando TRACON
09:22PM 28.6000 -81.4167 286° West 276 318 10,000 2,220 Climbing Orlando TRACON
09:24PM 28.5925 -81.6372 268° West 334 384 13,900 2,220 Climbing Jacksonville Center
09:25PM 28.6019 -81.7553 275° West 351 404 17,000 2,040 Climbing Jacksonville Center
09:26PM 28.6589 -81.8278 312° West 341 392 18,000 1,740 Climbing Jacksonville Center
09:27PM 28.7389 -81.9264 313° West 365 420 20,500 2,220 Climbing Jacksonville Center
09:28PM 28.8106 -82.0206 311° West 388 447 22,500 1,620 Climbing Jacksonville Center
09:29PM 28.8864 -82.1194 311° West 401 461 23,800 720 Climbing Jacksonville Center
09:30PM 28.9619 -82.2186 311° West 411 473 24,000  Climbing Jacksonville Center
09:31PM 29.0439 -82.3250 311° West 427 491 23,900  Descending Jacksonville Center
09:32PM 29.1258 -82.4314 311° West 437 503 24,000  Climbing Jacksonville Center
09:33PM 29.2075 -82.5358 312° West 442 509 24,000  Level Jacksonville Center
09:34PM 29.2872 -82.6378 312° West 442 509 24,000  Level Jacksonville Center
09:35PM 29.3644 -82.7425 310° West 437 503 24,000  Level Jacksonville Center
09:36PM 29.4439 -82.8450 312° West 437 503 24,000  Level Jacksonville Center
09:37PM 29.5336 -82.9642 311° West 434 499 24,000  Level Jacksonville Center
09:38PM 29.6172 -83.0644 314° West 440 506 24,000  Level Jacksonville Center
09:39PM 29.7131 -83.1461 324° Northwest 435 501 24,000  Level Jacksonville Center
09:40PM 29.8172 -83.2300 325° Northwest 449 517 24,000  Level Jacksonville Center
09:41PM 29.9047 -83.3022 324° Northwest 441 507 24,000  Level Jacksonville Center
09:42PM 30.0067 -83.3842 325° Northwest 446 513 24,000  Level Jacksonville Center
09:43PM 30.1150 -83.4714 325° Northwest 446 513 24,000  Level Jacksonville Center
09:44PM 30.2147 -83.5561 324° Northwest 446 513 24,000  Level Jacksonville Center
09:45PM 30.3144 -83.6386 324° Northwest 446 513 24,000  Level Jacksonville Center
09:46PM 30.4183 -83.7261 324° Northwest 446 513 24,000  Level Jacksonville Center
09:47PM 30.5222 -83.8089 326° Northwest 446 513 24,000  Level Jacksonville Center
09:48PM 30.6217 -83.8967 323° Northwest 446 513 24,000  Level Jacksonville Center
09:49PM 30.7275 -83.9850 324° Northwest 456 525 24,000  Level Jacksonville Center
09:50PM 30.8289 -84.0708 324° Northwest 456 525 24,000  Level Jacksonville Center
09:51PM 30.9325 -84.1569 325° Northwest 456 525 24,000  Level Jacksonville Center
09:52PM 31.0339 -84.2431 324° Northwest 456 525 24,000  Level Jacksonville Center
09:53PM 31.1353 -84.3294 324° Northwest 456 525 24,000  Level Jacksonville Center
09:55PM 31.3761 -84.5350 324° Northwest 448 516 24,000  Level Atlanta Center
09:56PM 31.4886 -84.6281 325° Northwest 455 524 24,000  Level Atlanta Center
09:57PM 31.5903 -84.7192 323° Northwest 460 529 24,000  Level Atlanta Center
09:58PM 31.6919 -84.8053 324° Northwest 460 529 24,000  Level Atlanta Center
09:59PM 31.7958 -84.8942 324° Northwest 455 524 24,000  Level Atlanta Center
10:00PM 31.8975 -84.9831 323° Northwest 455 524 24,000  Level Atlanta Center
10:01PM 32.0033 -85.0700 325° Northwest 455 524 24,000  Level Atlanta Center
10:02PM 32.1047 -85.1544 325° Northwest 455 524 24,000  Level Atlanta Center
10:03PM 32.2042 -85.2442 323° Northwest 449 517 24,000  Level Atlanta Center
10:04PM 32.3056 -85.3314 324° Northwest 449 517 24,000  Level Atlanta Center
10:05PM 32.4067 -85.4214 323° Northwest 455 524 24,000  Level Atlanta Center
10:06PM 32.5122 -85.5119 324° Northwest 455 524 24,000  Level Atlanta Center
10:07PM 32.6092 -85.5997 323° Northwest 456 525 24,000  Level Atlanta Center
10:08PM 32.7022 -85.6803 324° Northwest 456 525 24,000  Level Atlanta Center
10:09PM 32.8011 -85.7664 324° Northwest 456 525 24,000  Level Atlanta Center
10:10PM 32.9061 -85.8622 323° Northwest 461 531 24,000  Level Atlanta Center
10:12PM 33.0073 -85.9457 325° Northwest  Level FlightAware Approximate
10:12PM 33.1100 -86.0425 325° Northwest 461 531 24,000  Level Atlanta Center
10:13PM 33.2108 -86.1344 323° Northwest 455 524 24,000  Level Atlanta Center
10:14PM 33.3136 -86.2264 323° Northwest 455 524 24,000  Level Atlanta Center
10:15PM 33.4164 -86.3161 324° Northwest 455 524 24,000  Level Atlanta Center
10:17PM 33.5159 -86.4049 323° Northwest  Level FlightAware Approximate
10:17PM 33.6297 -86.5086 323° Northwest 455 524 24,000  Level Atlanta Center
10:18PM 33.7386 -86.5842 330° Northwest 455 524 24,000  Level Atlanta Center
10:19PM 33.8500 -86.6600 331° Northwest 455 524 24,000  Level Atlanta Center
10:20PM 33.9589 -86.7386 329° Northwest 455 524 24,000  Level Atlanta Center
10:23PM 34.2169 -86.9261 329° Northwest 477 549 24,000  Level Memphis Center
10:24PM 34.3278 -87.0047 330° Northwest 471 542 24,000  Level Memphis Center
10:25PM 34.4361 -87.0833 329° Northwest 456 525 24,000  Level Memphis Center
10:26PM 34.5411 -87.1803 323° Northwest 461 531 24,000  Level Memphis Center
10:27PM 34.6411 -87.2675 324° Northwest 455 524 24,000  Level Memphis Center
10:28PM 34.7564 -87.3642 325° Northwest 455 524 24,000  Level Memphis Center
10:29PM 34.8628 -87.4542 325° Northwest 455 524 24,000  Level Memphis Center
10:30PM 34.9650 -87.5444 324° Northwest 460 529 24,000  Level Memphis Center
10:31PM 35.0714 -87.6372 324° Northwest 460 529 24,000  Level Memphis Center
10:32PM 35.1669 -87.7153 326° Northwest 467 537 24,000  Level Memphis Center
10:33PM 35.2731 -87.8086 324° Northwest 467 537 24,000  Level Memphis Center
10:34PM 35.3794 -87.9022 324° Northwest 467 537 24,000  Level Memphis Center
10:35PM 35.4919 -88.0033 324° Northwest 467 537 24,000  Level Memphis Center
10:36PM 35.5850 -88.0850 324° Northwest 472 543 24,000  Level Memphis Center
10:37PM 35.6889 -88.1717 326° Northwest 457 526 24,000  Level Memphis Center
10:38PM 35.7947 -88.2608 326° Northwest 457 526 24,000  Level Memphis Center
10:39PM 35.8942 -88.3558 322° Northwest 457 526 24,000  Level Memphis Center
10:40PM 35.9978 -88.4456 325° Northwest 457 526 24,000  Level Memphis Center
10:41PM 36.0994 -88.5383 324° Northwest 457 526 24,000  Level Memphis Center
10:42PM 36.2008 -88.6286 324° Northwest 452 520 24,000  Level Memphis Center
10:43PM 36.3042 -88.7217 324° Northwest 452 520 24,000  Level Memphis Center
10:44PM 36.4075 -88.8125 325° Northwest 458 527 24,000  Level Memphis Center
10:45PM 36.5086 -88.9061 323° Northwest 458 527 24,000  Level Memphis Center
10:46PM 36.6097 -89.0025 323° Northwest 458 527 24,000  Level Memphis Center
10:47PM 36.7108 -89.0939 324° Northwest 458 527 24,000  Level Memphis Center
10:48PM 36.8117 -89.1881 323° Northwest 458 527 24,000  Level Memphis Center
10:49PM 36.9147 -89.2828 324° Northwest 458 527 24,000  Level Memphis Center
10:50PM 37.0156 -89.3775 323° Northwest 458 527 24,000  Level Memphis Center
10:52PM 37.2331 -89.5772 324° Northwest 452 520 24,000  Level Kansas City Center
10:53PM 37.3483 -89.6403 337° Northwest 449 517 24,000  Level Kansas City Center
10:54PM 37.4644 -89.7031 337° Northwest 451 519 24,000  Level Kansas City Center
10:55PM 37.5856 -89.7700 336° Northwest 454 522 24,000  Level Kansas City Center
10:56PM 37.7006 -89.8322 337° Northwest 451 519 24,000  Level Kansas City Center
10:57PM 37.8156 -89.8961 336° Northwest 451 519 24,000 -540 Level Kansas City Center
10:58PM 37.9383 -89.9617 337° Northwest 449 517 22,900 -1,680 Descending Kansas City Center
10:59PM 38.0403 -90.0181 336° Northwest 406 467 20,700 -2,280 Descending Kansas City Center
11:00PM 38.1383 -90.0736 336° Northwest 388 447 18,300 -2,520 Descending Kansas City Center
11:01PM 38.2403 -90.1306 336° Northwest 374 430 15,700 -1,980 Descending Kansas City Center
11:02PM 38.3300 -90.1811 336° Northwest 356 410 14,400 -1,920 Descending Kansas City Center
11:03PM 38.4175 -90.2311 336° Northwest 349 402 11,900 -1,980 Descending Kansas City Center
11:04PM 38.5044 -90.2847 334° Northwest 348 400 10,400 -1,740 Descending Kansas City Center
11:05PM 38.5775 -90.3319 333° Northwest 310 357 8,400 -1,800 Descending Kansas City Center
11:06PM 38.6328 -90.3853 323° Northwest 293 337 6,800 -1,680 Descending Kansas City Center
11:07PM 38.6936 -90.4514 320° Northwest 277 319 5,000 -1,680 Descending Kansas City Center
11:08PM 38.7536 -90.5122 322° Northwest 274 315 3,400 -1,140 Descending Kansas City Center
11:09PM 38.8044 -90.4806 26° Northeast 232 267 2,800 -840 Descending Kansas City Center
11:10PM 38.7839 -90.4397 123° Southeast 168 193 1,700 -900 Descending Kansas City Center
11:11PM 38.7647 -90.4000 122° Southeast 143 165 1,000 -600 Descending Kansas City Center
11:12PM 38.7417 -90.3531 122° Southeast 138 159 500 -540 Descending Kansas City Center